Time;durP1;ratioP1;P1;durP2;ratioP2;P2;SDS_P1;SDS_P2;PMS_P1;PMS_P2;Temp;Humidity;BMP_temperature;BMP_pressure;BME280_temperature;BME280_humidity;BME280_pressure;Samples;Min_cycle;Max_cycle;Signal;HPM_P1;HPM_P2
2021/01/05 00:00:06;;;;;;;16.40;9.50;;;;;;;2.96;72.80;101158.56;1693178;83;21184;-42
2021/01/05 00:02:34;;;;;;;16.35;9.45;;;;;;;2.96;72.73;101159.02;1695854;82;21359;-39
2021/01/05 00:05:02;;;;;;;18.98;10.55;;;;;;;2.95;72.65;101168.69;1694982;82;21176;-44
2021/01/05 00:07:31;;;;;;;14.05;8.95;;;;;;;2.94;72.65;101173.52;1705007;82;21157;-40
2021/01/05 00:10:00;;;;;;;15.50;10.00;;;;;;;2.94;72.56;101171.34;1685395;83;21226;-41
2021/01/05 00:12:27;;;;;;;16.67;9.78;;;;;;;2.90;72.50;101168.31;1700349;82;21444;-43
2021/01/05 00:14:55;;;;;;;16.62;9.68;;;;;;;2.86;72.56;101172.78;1681770;82;21646;-40
2021/01/05 00:17:23;;;;;;;16.85;9.40;;;;;;;2.85;72.51;101168.41;1705581;82;21159;-39
2021/01/05 00:19:51;;;;;;;15.38;9.03;;;;;;;2.84;72.51;101168.42;1701217;82;21589;-42
2021/01/05 05:10:33;;;;;;;15.75;9.90;;;;;;;2.31;74.18;101028.35;1703580;80;21086;-38
2021/01/05 05:13:32;;;;;;;17.82;10.58;;;;;;;2.30;74.26;101017.41;1692382;82;21577;-41
2021/01/05 05:16:25;;;;;;;11.55;7.90;;;;;;;2.30;74.29;101016.55;1719214;80;21789;-38
2021/01/05 05:19:15;;;;;;;14.38;9.83;;;;;;;2.31;74.36;101017.82;1733017;80;21136;-41
2021/01/05 05:22:12;;;;;;;13.72;9.88;;;;;;;2.32;74.46;101019.58;1737342;81;21203;-38
2021/01/05 05:24:53;;;;;;;14.30;10.13;;;;;;;2.33;74.54;101014.73;1728157;80;21159;-39
2021/01/05 05:27:37;;;;;;;16.62;10.15;;;;;;;2.33;74.58;101011.23;1712059;81;21207;-40
2021/01/05 05:30:11;;;;;;;16.27;11.03;;;;;;;2.36;74.60;101011.17;1693423;82;21170;-38
2021/01/05 05:32:51;;;;;;;14.40;10.90;;;;;;;2.40;74.61;101014.64;1722277;80;21141;-41
2021/01/05 05:36:02;;;;;;;14.18;9.55;;;;;;;2.41;74.57;101008.47;1741825;80;21183;-49
2021/01/05 05:38:56;;;;;;;14.95;9.78;;;;;;;2.40;74.53;100999.71;1744754;80;21193;-41
2021/01/05 05:42:19;;;;;;;17.02;10.72;;;;;;;2.40;74.33;101003.66;1703864;82;21694;-39
2021/01/05 05:44:55;;;;;;;14.45;9.75;;;;;;;2.41;74.32;101001.89;1711760;81;21418;-42
2021/01/05 05:47:34;;;;;;;14.45;9.63;;;;;;;2.40;74.19;101006.75;1737606;80;21145;-39
2021/01/05 05:50:35;;;;;;;14.03;10.68;;;;;;;2.38;74.22;101006.30;1669062;83;21162;-41
2021/01/05 05:53:14;;;;;;;13.47;9.37;;;;;;;2.38;74.24;101008.08;1727162;81;21142;-42
2021/01/05 05:55:53;;;;;;;12.85;9.13;;;;;;;2.44;74.20;101011.05;1804222;77;22824;-41
2021/01/05 05:58:23;;;;;;;15.08;9.55;;;;;;;2.40;74.41;101008.06;1768894;79;21109;-42
2021/01/05 06:00:55;;;;;;;14.55;9.98;;;;;;;2.45;75.26;101010.17;1745245;78;21644;-41
2021/01/05 06:03:24;;;;;;;14.05;9.73;;;;;;;2.53;75.43;101010.45;1779243;79;21149;-41
2021/01/05 06:05:51;;;;;;;17.10;11.08;;;;;;;2.67;75.14;101011.97;1711639;81;21182;-43
2021/01/05 06:08:20;;;;;;;11.78;9.33;;;;;;;2.76;75.13;101011.36;1720238;81;21166;-41
2021/01/05 06:10:48;;;;;;;13.05;9.20;;;;;;;2.85;74.71;101012.08;1739617;80;21147;-41
2021/01/05 06:13:15;;;;;;;13.38;9.05;;;;;;;2.92;74.64;101006.67;1742140;80;21116;-42
2021/01/05 06:15:43;;;;;;;15.78;9.55;;;;;;;3.01;74.32;101006.97;1746723;80;21149;-41
2021/01/05 06:18:13;;;;;;;12.33;9.05;;;;;;;3.08;74.12;100995.88;1742854;80;21176;-39
2021/01/05 06:20:40;;;;;;;15.70;10.65;;;;;;;3.19;74.33;100999.15;1737623;80;21145;-40
2021/01/05 06:23:09;;;;;;;13.60;9.20;;;;;;;3.29;73.74;100990.61;1710001;82;21157;-40
2021/01/05 06:25:37;;;;;;;13.15;10.23;;;;;;;3.32;73.38;100992.72;1729358;81;21158;-40
2021/01/05 06:28:06;;;;;;;12.28;9.33;;;;;;;3.35;73.08;100994.42;1722740;81;21561;-39
2021/01/05 06:30:33;;;;;;;12.80;9.63;;;;;;;3.37;72.84;100999.22;1718696;81;21148;-39
2021/01/05 06:33:01;;;;;;;13.70;9.00;;;;;;;3.38;72.56;101003.61;1735844;80;21120;-41
2021/01/05 06:35:28;;;;;;;12.60;9.03;;;;;;;3.36;72.46;100994.41;1740031;80;21158;-38
2021/01/05 06:37:56;;;;;;;14.47;9.10;;;;;;;3.35;72.19;100993.11;1707754;81;21685;-41
2021/01/05 06:40:25;;;;;;;14.15;10.40;;;;;;;3.29;71.85;100993.25;1690579;83;21486;-41
2021/01/05 06:42:53;;;;;;;15.93;11.68;;;;;;;3.14;71.80;100994.42;1699216;83;21147;-53
2021/01/05 06:45:28;;;;;;;15.85;10.43;;;;;;;3.02;71.83;100996.83;1701657;82;21203;-40
2021/01/05 06:47:56;;;;;;;13.85;10.32;;;;;;;2.91;72.00;100998.36;1702714;82;21408;-38
2021/01/05 06:50:26;;;;;;;13.50;10.45;;;;;;;2.84;72.13;101005.09;1703431;84;21152;-38
2021/01/05 06:52:53;;;;;;;14.33;9.75;;;;;;;2.78;72.27;101005.63;1701911;83;21138;-37
2021/01/05 06:55:21;;;;;;;14.13;9.78;;;;;;;2.75;72.42;101007.45;1686701;83;21710;-38
2021/01/05 06:57:49;;;;;;;15.40;10.90;;;;;;;2.70;72.38;100999.63;1740953;80;21193;-40
2021/01/05 07:00:23;;;;;;;16.15;10.98;;;;;;;2.66;72.52;101011.11;1739139;80;21637;-39
2021/01/05 07:02:51;;;;;;;14.10;10.08;;;;;;;2.65;72.58;101014.65;1739530;80;21486;-40
2021/01/05 07:05:19;;;;;;;16.48;11.12;;;;;;;2.62;72.65;101004.17;1733979;80;21134;-40
2021/01/05 07:07:48;;;;;;;17.15;11.73;;;;;;;2.59;72.78;101005.52;1737789;80;21167;-42
2021/01/05 07:10:17;;;;;;;15.93;11.88;;;;;;;2.58;72.84;101004.66;1740833;80;21154;-40
2021/01/05 07:12:45;;;;;;;18.07;13.38;;;;;;;2.55;72.95;101005.17;1737796;80;21506;-39
2021/01/05 07:15:14;;;;;;;19.02;12.13;;;;;;;2.52;73.05;101003.45;1738382;80;21284;-38
2021/01/05 07:17:42;;;;;;;18.30;12.65;;;;;;;2.54;73.11;101006.05;1735037;80;21182;-39
2021/01/05 07:20:10;;;;;;;19.45;13.85;;;;;;;2.54;73.22;101007.36;1740598;80;21119;-40
2021/01/05 07:22:38;;;;;;;19.95;14.78;;;;;;;2.54;73.25;100995.52;1738276;81;21157;-38
2021/01/05 07:25:10;;;;;;;17.90;13.55;;;;;;;2.53;73.28;101004.32;1742626;80;21110;-39
2021/01/05 07:27:38;;;;;;;19.67;14.13;;;;;;;2.54;73.24;101004.73;1737143;80;21110;-39
2021/01/05 07:30:07;;;;;;;20.30;14.58;;;;;;;2.55;73.20;101007.80;1739757;80;21317;-37
2021/01/05 07:32:34;;;;;;;17.25;13.08;;;;;;;2.56;73.17;101009.53;1741231;80;21591;-38
2021/01/05 07:35:02;;;;;;;20.48;15.40;;;;;;;2.55;73.20;101008.66;1742379;80;21938;-37
2021/01/05 07:37:32;;;;;;;22.30;14.28;;;;;;;2.55;73.27;101017.02;1738211;81;21152;-39
2021/01/05 07:39:59;;;;;;;19.20;14.68;;;;;;;2.55;73.28;101009.12;1739389;80;21153;-39
2021/01/05 07:42:29;;;;;;;22.13;16.23;;;;;;;2.57;73.30;101001.61;1744139;80;21151;-39
2021/01/05 07:44:59;;;;;;;22.85;15.72;;;;;;;2.57;73.34;100998.98;1740195;80;21134;-38
2021/01/05 07:47:29;;;;;;;22.62;15.00;;;;;;;2.57;73.42;101005.56;1735141;80;21162;-39
2021/01/05 07:49:57;;;;;;;20.57;15.03;;;;;;;2.57;73.48;101012.14;1741216;80;21178;-39
2021/01/05 07:52:39;;;;;;;22.37;16.65;;;;;;;2.57;73.50;101012.14;1739150;80;21755;-39
2021/01/05 07:55:21;;;;;;;22.55;15.70;;;;;;;2.58;73.51;101017.82;1735601;80;21161;-37
2021/01/05 07:57:50;;;;;;;23.83;15.58;;;;;;;2.58;73.50;101009.06;1737744;80;21175;-42
2021/01/05 08:00:22;;;;;;;20.77;15.58;;;;;;;2.59;73.54;101010.33;1740079;80;21114;-41
2021/01/05 08:02:50;;;;;;;20.60;15.70;;;;;;;2.60;73.54;101013.41;1739071;80;21735;-42
2021/01/05 08:05:19;;;;;;;20.12;15.28;;;;;;;2.60;73.60;101007.27;1742339;80;21130;-38
2021/01/05 08:07:53;;;;;;;18.32;14.03;;;;;;;2.59;73.47;101002.43;1739271;80;21137;-40
2021/01/05 08:10:35;;;;;;;17.95;13.50;;;;;;;2.58;73.47;101003.80;1737128;80;21158;-40
2021/01/05 08:13:05;;;;;;;18.12;14.05;;;;;;;2.56;73.53;101001.17;1739556;80;21196;-40
2021/01/05 08:15:35;;;;;;;18.48;14.13;;;;;;;2.57;73.44;100988.87;1739566;80;21478;-41
2021/01/05 08:18:03;;;;;;;18.62;14.47;;;;;;;2.56;73.50;100988.00;1739876;80;21144;-39
2021/01/05 08:20:32;;;;;;;21.45;13.53;;;;;;;2.55;73.61;100977.06;1741994;80;21146;-40
2021/01/05 08:23:02;;;;;;;18.02;13.85;;;;;;;2.56;73.59;100980.11;1740378;80;21383;-39
2021/01/05 08:25:32;;;;;;;19.45;13.45;;;;;;;2.58;73.66;100987.99;1740559;80;21158;-40
2021/01/05 08:27:59;;;;;;;18.15;14.07;;;;;;;2.62;73.69;100973.89;1738769;80;21158;-39
2021/01/05 08:30:30;;;;;;;18.48;13.70;;;;;;;2.64;73.54;100969.44;1737071;80;21145;-40
2021/01/05 08:33:02;;;;;;;17.30;12.23;;;;;;;2.64;73.60;100955.41;1740335;80;21178;-39
2021/01/05 08:35:30;;;;;;;19.55;13.43;;;;;;;2.66;73.58;100953.62;1736720;80;21456;-39
2021/01/05 08:37:58;;;;;;;16.80;12.28;;;;;;;2.66;73.43;100953.16;1739184;80;21138;-39
2021/01/05 08:41:03;;;;;;;15.18;10.60;;;;;;;2.67;73.43;100943.48;1738320;80;21185;-38
2021/01/05 08:44:31;;;;;;;13.55;10.70;;;;;;;2.67;73.48;100941.75;1649116;85;21655;-41
2021/01/05 08:47:20;;;;;;;13.72;10.13;;;;;;;2.64;73.37;100935.66;1654805;85;21618;-42
2021/01/05 08:50:34;;;;;;;15.05;10.32;;;;;;;2.60;73.38;100934.86;1551674;91;21284;-40
2021/01/05 08:53:31;;;;;;;16.05;10.35;;;;;;;2.72;74.05;100948.22;1791527;78;23141;-45
2021/01/05 08:55:59;;;;;;;18.37;12.40;;;;;;;2.71;73.90;100946.05;1763160;79;21177;-48
2021/01/05 08:58:33;;;;;;;12.85;9.98;;;;;;;2.75;73.75;100956.95;1753700;80;21891;-44
2021/01/05 09:01:04;;;;;;;14.35;10.10;;;;;;;2.77;73.64;100955.17;1757279;80;21174;-38
2021/01/05 09:03:35;;;;;;;14.65;11.00;;;;;;;2.80;73.64;100948.97;1753698;80;21152;-51
2021/01/05 09:06:04;;;;;;;13.15;9.53;;;;;;;2.85;73.53;100949.75;1749676;79;21150;-44
2021/01/05 09:08:36;;;;;;;14.00;9.80;;;;;;;2.87;73.41;100948.38;1755388;80;21642;-48
2021/01/05 09:11:10;;;;;;;14.30;9.50;;;;;;;2.88;73.30;100951.00;1764759;80;21760;-38
2021/01/05 09:13:38;;;;;;;13.15;9.15;;;;;;;2.89;73.15;100954.05;1761888;80;21138;-42
2021/01/05 09:16:05;;;;;;;12.75;8.33;;;;;;;2.92;73.03;100950.02;1763805;80;21146;-43
2021/01/05 09:18:33;;;;;;;10.75;7.70;;;;;;;2.93;73.00;100949.14;1751947;80;21902;-44
2021/01/05 09:21:03;;;;;;;13.22;8.00;;;;;;;2.95;73.79;100946.03;1760467;80;21697;-40
2021/01/05 09:23:30;;;;;;;11.68;8.70;;;;;;;3.01;73.72;100945.04;1761727;79;21129;-40
2021/01/05 09:25:58;;;;;;;10.65;8.50;;;;;;;3.05;73.43;100946.73;1764329;80;21155;-41
2021/01/05 09:28:27;;;;;;;10.80;8.38;;;;;;;3.07;73.27;100944.04;1750642;80;21161;-40
2021/01/05 09:30:54;;;;;;;10.82;8.00;;;;;;;3.05;73.15;100936.19;1761327;80;21171;-42
2021/01/05 09:33:22;;;;;;;13.03;8.90;;;;;;;3.04;73.04;100929.16;1760835;80;21127;-40
2021/01/05 09:35:50;;;;;;;12.20;8.45;;;;;;;3.02;72.92;100925.68;1760397;80;21130;-40
2021/01/05 09:38:18;;;;;;;9.65;7.35;;;;;;;2.98;72.86;100919.62;1673758;83;21657;-41
2021/01/05 09:40:45;;;;;;;11.97;8.35;;;;;;;2.98;72.93;100909.08;1732604;81;21145;-43
2021/01/05 09:43:13;;;;;;;11.45;8.43;;;;;;;2.97;73.10;100900.77;1733375;81;21138;-42
2021/01/05 09:45:40;;;;;;;12.28;9.28;;;;;;;2.97;73.04;100891.55;1723743;81;21131;-41
2021/01/05 09:48:12;;;;;;;13.20;8.58;;;;;;;2.99;73.11;100895.45;1730769;81;21195;-42
2021/01/05 09:50:42;;;;;;;9.85;7.62;;;;;;;2.97;73.10;100881.43;1723436;81;21134;-43
2021/01/05 09:53:10;;;;;;;12.10;9.10;;;;;;;2.95;73.17;100889.39;1727517;81;21146;-40
2021/01/05 09:55:37;;;;;;;13.55;10.18;;;;;;;2.95;73.20;100880.16;1727245;81;21154;-40
2021/01/05 09:58:05;;;;;;;12.13;8.93;;;;;;;2.94;73.18;100876.23;1728226;81;21565;-43
2021/01/05 10:00:35;;;;;;;13.55;9.60;;;;;;;2.92;73.18;100873.61;1723141;81;21158;-40
2021/01/05 10:03:07;;;;;;;13.72;9.38;;;;;;;2.90;73.20;100882.45;1716339;81;21158;-48
2021/01/05 10:05:35;;;;;;;15.43;10.38;;;;;;;2.88;73.22;100872.42;1726474;81;21736;-45
2021/01/05 10:08:04;;;;;;;11.65;9.13;;;;;;;2.87;73.35;100877.25;1721517;81;21637;-50
2021/01/05 10:10:33;;;;;;;15.18;10.15;;;;;;;2.88;73.41;100872.42;1722951;81;21122;-42
2021/01/05 10:13:04;;;;;;;14.78;9.83;;;;;;;2.88;73.48;100871.10;1730246;81;21795;-46
2021/01/05 10:15:32;;;;;;;13.13;9.93;;;;;;;2.93;73.50;100873.19;1709535;81;21531;-47
2021/01/05 10:18:03;;;;;;;12.40;10.68;;;;;;;2.96;73.47;100875.75;1728911;81;21685;-57
2021/01/05 10:20:32;;;;;;;16.00;10.72;;;;;;;2.96;73.50;100866.08;1729676;81;21145;-50
2021/01/05 10:22:59;;;;;;;16.17;11.25;;;;;;;2.96;73.57;100863.90;1726268;81;21190;-41
2021/01/05 10:25:27;;;;;;;13.85;10.35;;;;;;;2.96;73.55;100857.31;1731118;81;21138;-42
2021/01/05 10:27:55;;;;;;;16.60;11.80;;;;;;;2.98;73.51;100853.74;1731539;81;21134;-42
2021/01/05 10:30:23;;;;;;;16.27;11.15;;;;;;;2.99;73.54;100844.92;1728469;81;21110;-42
2021/01/05 10:32:51;;;;;;;15.65;11.33;;;;;;;3.00;73.52;100839.23;1728760;81;21141;-41
2021/01/05 10:35:20;;;;;;;15.63;11.48;;;;;;;3.01;73.49;100846.22;1731829;81;21118;-41
2021/01/05 10:37:47;;;;;;;17.25;11.63;;;;;;;3.01;73.48;100846.22;1727043;81;21126;-41
2021/01/05 10:40:17;;;;;;;16.12;12.63;;;;;;;3.00;73.54;100838.77;1729958;81;21138;-39
2021/01/05 10:42:49;;;;;;;13.65;11.22;;;;;;;3.01;73.57;100836.55;1692282;83;21202;-39
2021/01/05 10:45:21;;;;;;;17.82;13.03;;;;;;;3.02;73.58;100829.50;1721752;81;21158;-39
2021/01/05 10:47:49;;;;;;;20.23;13.85;;;;;;;3.02;73.66;100821.17;1692475;83;21162;-40
2021/01/05 10:50:18;;;;;;;15.88;12.50;;;;;;;3.03;73.69;100818.94;1720552;81;21148;-41
2021/01/05 10:52:46;;;;;;;16.90;13.93;;;;;;;3.08;73.57;100839.06;1716215;81;21472;-40
2021/01/05 10:55:15;;;;;;;17.37;13.58;;;;;;;3.07;73.59;100835.53;1731011;81;21578;-42
2021/01/05 10:57:42;;;;;;;19.40;14.35;;;;;;;3.06;73.48;100829.00;1730953;81;21145;-42
2021/01/05 11:00:16;;;;;;;14.90;12.10;;;;;;;3.04;73.58;100825.06;1727778;81;21146;-41
2021/01/05 11:02:44;;;;;;;16.00;13.50;;;;;;;3.03;73.61;100815.44;1696678;83;21164;-39
2021/01/05 11:05:14;;;;;;;20.88;15.53;;;;;;;3.00;73.47;100808.47;1726410;81;21645;-40
2021/01/05 11:08:12;;;;;;;20.05;14.93;;;;;;;2.99;73.40;100804.08;1734076;81;21130;-47
2021/01/05 11:11:16;;;;;;;21.07;14.38;;;;;;;3.00;73.31;100811.11;1684590;83;21206;-40
2021/01/05 11:13:44;;;;;;;21.45;15.85;;;;;;;3.02;73.40;100813.69;1687193;83;21197;-39
2021/01/05 11:16:13;;;;;;;23.38;16.73;;;;;;;3.04;73.40;100815.84;1681122;84;21210;-39
2021/01/05 11:18:44;;;;;;;20.52;16.48;;;;;;;3.06;73.45;100818.00;1684176;84;21562;-44
2021/01/05 11:22:13;;;;;;;21.05;15.55;;;;;;;3.06;73.42;100819.78;1685342;84;21146;-39
2021/01/05 11:25:47;;;;;;;23.50;17.45;;;;;;;3.07;73.46;100809.18;1791000;78;22722;-39
2021/01/05 11:28:15;;;;;;;25.23;17.20;;;;;;;3.02;73.43;100816.32;1775928;79;21163;-40
2021/01/05 11:30:43;;;;;;;22.95;16.07;;;;;;;3.01;73.54;100817.23;1774245;79;21141;-38
2021/01/05 11:33:10;;;;;;;23.77;17.48;;;;;;;3.03;73.52;100807.53;1772318;79;21240;-38
2021/01/05 11:35:43;;;;;;;23.00;17.10;;;;;;;3.04;73.50;100810.58;1764377;79;21171;-39
2021/01/05 11:38:11;;;;;;;27.98;18.62;;;;;;;3.03;73.49;100811.48;1743642;80;21622;-39
2021/01/05 11:40:38;;;;;;;29.37;20.50;;;;;;;3.02;73.48;100805.78;1739563;80;21146;-40
2021/01/05 11:43:06;;;;;;;28.92;19.02;;;;;;;3.02;73.50;100815.01;1742848;80;21157;-39
2021/01/05 11:45:33;;;;;;;25.30;18.05;;;;;;;3.03;73.38;100806.22;1732021;80;21134;-39
2021/01/05 11:48:01;;;;;;;26.12;17.17;;;;;;;3.04;73.39;100807.48;1741454;80;21110;-39
2021/01/05 11:50:29;;;;;;;26.70;17.80;;;;;;;3.02;73.32;100801.41;1742462;81;22325;-39
2021/01/05 11:52:58;;;;;;;25.77;16.65;;;;;;;3.00;73.37;100806.30;1752466;80;21141;-39
2021/01/05 11:55:26;;;;;;;26.37;18.12;;;;;;;2.99;73.49;100801.45;1738171;81;21170;-52
2021/01/05 11:57:53;;;;;;;24.23;16.70;;;;;;;2.99;73.32;100808.03;1726164;81;21171;-44
2021/01/05 12:00:22;;;;;;;24.90;18.05;;;;;;;3.02;73.25;100800.09;1731959;81;21169;-41
2021/01/05 12:02:49;;;;;;;22.05;16.23;;;;;;;3.02;73.12;100803.14;1703527;82;21134;-39
2021/01/05 12:05:18;;;;;;;25.27;17.95;;;;;;;3.03;72.91;100806.22;1687385;84;21148;-41
2021/01/05 12:07:47;;;;;;;27.27;18.45;;;;;;;3.03;72.94;100808.39;1689058;83;21188;-42
2021/01/05 12:10:15;;;;;;;26.07;17.42;;;;;;;3.02;72.82;100798.77;1686932;84;21619;-43
2021/01/05 12:12:42;;;;;;;25.97;16.82;;;;;;;3.01;72.66;100802.74;1684385;83;21202;-42
2021/01/05 12:15:11;;;;;;;25.43;16.67;;;;;;;3.00;72.81;100795.30;1679637;84;21217;-41
2021/01/05 12:17:40;;;;;;;23.18;17.48;;;;;;;3.00;72.74;100791.34;1690421;84;21153;-41
2021/01/05 12:20:08;;;;;;;26.62;19.17;;;;;;;2.99;72.69;100799.27;1690509;83;21185;-41
2021/01/05 12:22:36;;;;;;;23.42;17.52;;;;;;;2.98;72.72;100805.00;1684051;84;21644;-42
2021/01/05 12:25:05;;;;;;;24.30;18.30;;;;;;;3.00;72.81;100807.61;1688511;83;21180;-43
2021/01/05 12:27:32;;;;;;;22.52;16.35;;;;;;;3.00;72.73;100806.30;1690085;83;21206;-40
2021/01/05 12:30:00;;;;;;;26.75;18.87;;;;;;;2.98;72.80;100800.19;1681967;84;21237;-41
2021/01/05 12:32:28;;;;;;;25.52;17.50;;;;;;;2.97;72.83;100805.91;1687808;83;21205;-42
2021/01/05 12:34:56;;;;;;;21.87;15.60;;;;;;;2.96;72.93;100799.34;1710086;82;21950;-41
2021/01/05 12:37:24;;;;;;;23.02;16.62;;;;;;;2.95;72.93;100802.89;1692612;83;21613;-40
2021/01/05 12:39:52;;;;;;;22.27;16.73;;;;;;;2.94;72.80;100793.23;1696932;83;21133;-40
2021/01/05 12:42:25;;;;;;;21.20;15.80;;;;;;;2.90;72.75;100792.45;1672976;83;21185;-40
2021/01/05 12:44:55;;;;;;;22.10;15.68;;;;;;;2.90;72.69;100795.09;1684658;83;21169;-41
2021/01/05 12:47:24;;;;;;;21.73;15.55;;;;;;;2.92;72.71;100797.67;1707564;82;21200;-42
2021/01/05 12:49:52;;;;;;;18.95;12.93;;;;;;;2.93;72.56;100792.83;1676315;83;21165;-41
2021/01/05 12:52:20;;;;;;;17.32;12.85;;;;;;;2.93;72.36;100788.88;1683428;83;21197;-39
2021/01/05 12:54:48;;;;;;;19.73;13.78;;;;;;;2.93;72.09;100798.10;1689909;83;21194;-38
2021/01/05 12:57:16;;;;;;;18.98;12.88;;;;;;;2.93;71.98;100810.82;1687545;83;21201;-39
2021/01/05 12:59:47;;;;;;;16.30;11.93;;;;;;;2.94;71.74;100821.77;1689392;83;21157;-39
2021/01/05 13:02:19;;;;;;;;;;;;;;;2.92;71.70;100802.48;1697141;83;21179;-41
2021/01/05 13:04:48;;;;;;;16.15;12.60;;;;;;;2.90;71.70;100800.78;1695091;83;20173;-41
2021/01/05 13:07:19;;;;;;;18.10;13.93;;;;;;;2.86;71.65;100792.09;1692429;83;21173;-41
2021/01/05 13:09:53;;;;;;;16.97;13.55;;;;;;;2.84;71.86;100789.08;1686861;83;21326;-40
2021/01/05 13:12:20;;;;;;;19.87;14.13;;;;;;;2.83;71.81;100791.30;1680515;83;21988;-40
2021/01/05 13:14:49;;;;;;;17.23;12.75;;;;;;;2.81;71.69;100794.81;1689233;84;21173;-41
2021/01/05 13:17:16;;;;;;;19.35;13.75;;;;;;;2.80;71.76;100795.73;1690619;83;21213;-41
2021/01/05 13:19:44;;;;;;;18.45;13.68;;;;;;;2.78;71.83;100794.89;1687331;83;21153;-44
2021/01/05 13:22:12;;;;;;;20.02;13.85;;;;;;;2.77;71.91;100791.85;1676480;83;21169;-39
2021/01/05 13:24:40;;;;;;;19.12;15.40;;;;;;;2.75;71.95;100789.69;1679588;83;21288;-40
2021/01/05 13:27:07;;;;;;;17.90;14.78;;;;;;;2.71;72.03;100786.70;1680048;83;21192;-41
2021/01/05 13:29:38;;;;;;;18.50;13.85;;;;;;;2.70;72.40;100781.48;1713781;82;21206;-41
2021/01/05 13:32:15;;;;;;;18.37;14.55;;;;;;;2.71;72.31;100780.57;1708906;83;21878;-41
2021/01/05 13:34:43;;;;;;;17.48;13.18;;;;;;;2.69;72.29;100770.05;1697526;83;21193;-41
2021/01/05 13:37:14;;;;;;;17.45;13.13;;;;;;;2.70;72.30;100765.22;1716524;81;21183;-41
2021/01/05 13:39:42;;;;;;;19.35;12.68;;;;;;;2.68;72.34;100764.84;1706009;82;21132;-45
2021/01/05 13:42:14;;;;;;;17.62;13.32;;;;;;;2.66;72.30;100767.95;1665797;83;21590;-45
2021/01/05 13:44:42;;;;;;;16.93;14.18;;;;;;;2.66;72.35;100779.34;1684683;83;21150;-41
2021/01/05 13:47:19;;;;;;;17.50;13.22;;;;;;;2.66;72.22;100772.77;1695164;82;21307;-43
2021/01/05 13:49:47;;;;;;;15.43;12.70;;;;;;;2.64;72.17;100769.28;1699371;82;21987;-40
2021/01/05 13:52:21;;;;;;;16.65;12.65;;;;;;;2.65;72.15;100778.94;1682599;82;21172;-42
2021/01/05 13:54:50;;;;;;;17.70;12.60;;;;;;;2.65;72.11;100779.40;1701969;82;21815;-42
2021/01/05 13:57:20;;;;;;;13.93;11.45;;;;;;;2.63;72.15;100775.92;1676013;83;22321;-42
2021/01/05 13:59:48;;;;;;;18.25;13.40;;;;;;;2.63;72.15;100783.83;1718169;82;21177;-42
2021/01/05 14:02:25;;;;;;;16.35;11.90;;;;;;;2.63;72.17;100786.45;1681909;83;21231;-42
2021/01/05 14:04:59;;;;;;;20.15;11.38;;;;;;;2.63;72.12;100787.31;1682258;83;21747;-40
2021/01/05 14:07:48;;;;;;;19.80;15.45;;;;;;;2.67;72.17;100777.15;1802396;77;22078;-41
2021/01/05 14:10:20;;;;;;;19.07;13.83;;;;;;;2.58;72.23;100780.83;1762427;79;21157;-39
2021/01/05 14:12:47;;;;;;;17.50;13.45;;;;;;;2.55;72.33;100779.58;1765354;79;21117;-40
2021/01/05 14:15:15;;;;;;;20.00;15.18;;;;;;;2.54;72.37;100773.88;1762135;79;21132;-40
2021/01/05 14:17:42;;;;;;;18.25;14.15;;;;;;;2.54;72.36;100773.88;1762000;80;21976;-40
2021/01/05 14:20:15;;;;;;;18.05;14.25;;;;;;;2.54;72.45;100769.06;1751538;80;21557;-46
2021/01/05 14:22:47;;;;;;;16.62;13.13;;;;;;;2.54;72.52;100768.61;1770717;79;21144;-40
2021/01/05 14:25:15;;;;;;;17.12;13.48;;;;;;;2.53;72.48;100762.94;1768217;79;21129;-41
2021/01/05 14:27:43;;;;;;;17.55;14.38;;;;;;;2.54;72.49;100768.61;1767700;80;21627;-40
2021/01/05 14:30:12;;;;;;;20.00;15.05;;;;;;;2.54;72.40;100767.29;1774935;79;21125;-41
2021/01/05 14:32:39;;;;;;;19.10;13.85;;;;;;;2.50;72.40;100770.05;1772758;79;21141;-41
2021/01/05 14:35:09;;;;;;;17.15;13.25;;;;;;;2.51;72.41;100769.13;1763139;79;21133;-40
2021/01/05 14:37:36;;;;;;;18.15;15.28;;;;;;;2.49;72.35;100769.16;1767875;79;21214;-43
2021/01/05 14:40:05;;;;;;;18.67;14.15;;;;;;;2.49;72.37;100770.47;1741548;80;21140;-39
2021/01/05 14:42:32;;;;;;;20.72;14.83;;;;;;;2.51;72.37;100771.77;1746139;80;21137;-42
2021/01/05 14:45:00;;;;;;;19.73;13.95;;;;;;;2.52;72.12;100762.95;1748810;80;21133;-46
2021/01/05 14:47:28;;;;;;;20.02;15.18;;;;;;;2.50;72.08;100760.38;1743721;80;21161;-39
2021/01/05 14:49:55;;;;;;;19.05;15.08;;;;;;;2.49;72.02;100773.10;1702336;82;21125;-39
2021/01/05 14:52:23;;;;;;;20.25;14.95;;;;;;;2.47;71.97;100780.61;1715918;82;21557;-42
2021/01/05 14:54:51;;;;;;;19.60;14.68;;;;;;;2.43;72.02;100790.81;1681272;83;21165;-42
2021/01/05 14:57:19;;;;;;;20.80;16.37;;;;;;;2.41;71.96;100805.77;1710239;82;21613;-42
2021/01/05 14:59:47;;;;;;;19.32;15.38;;;;;;;2.38;71.88;100802.28;1680497;83;21188;-44
2021/01/05 15:02:16;;;;;;;25.30;16.25;;;;;;;2.38;71.94;100803.60;1684588;83;21648;-42
2021/01/05 15:07:23;;;;;;;22.48;15.75;;;;;;;2.38;72.01;100801.42;1767532;77;22812;-39
2021/01/05 15:10:00;;;;;;;19.65;14.68;;;;;;;2.33;71.95;100805.45;1740164;80;21911;-41
2021/01/05 15:12:33;;;;;;;24.32;16.67;;;;;;;2.31;71.97;100795.86;1740175;80;21561;-42
2021/01/05 15:15:01;;;;;;;21.73;15.08;;;;;;;2.33;72.03;100811.17;1742615;80;21259;-43
2021/01/05 15:17:29;;;;;;;22.85;15.93;;;;;;;2.33;72.03;100796.70;1739367;80;21173;-42
2021/01/05 15:19:56;;;;;;;24.52;17.52;;;;;;;2.32;72.05;100797.61;1734658;80;21153;-44
2021/01/05 15:22:24;;;;;;;22.02;17.77;;;;;;;2.30;72.13;100789.73;1742163;80;21549;-41
2021/01/05 15:24:52;;;;;;;21.27;16.15;;;;;;;2.30;72.25;100783.61;1739896;80;21161;-43
2021/01/05 15:27:19;;;;;;;23.25;17.02;;;;;;;2.28;72.33;100782.77;1737003;80;21203;-42
2021/01/05 15:29:47;;;;;;;25.72;17.60;;;;;;;2.27;72.37;100767.42;1737734;80;21137;-42
2021/01/05 15:32:15;;;;;;;22.20;16.40;;;;;;;2.27;72.39;100756.91;1734993;80;21462;-42
2021/01/05 15:34:42;;;;;;;19.70;15.35;;;;;;;2.26;72.44;100754.28;1678982;83;21164;-45
2021/01/05 15:37:09;;;;;;;23.07;16.25;;;;;;;2.27;72.49;100777.95;1692546;82;21176;-45
2021/01/05 15:39:37;;;;;;;22.52;15.60;;;;;;;2.26;72.49;100763.50;1674070;84;21169;-44
2021/01/05 15:42:05;;;;;;;24.35;16.27;;;;;;;2.25;72.49;100769.22;1671008;83;22163;-43
2021/01/05 15:44:36;;;;;;;22.27;15.98;;;;;;;2.25;72.58;100768.36;1675223;83;21177;-41
2021/01/05 15:47:04;;;;;;;24.98;16.37;;;;;;;2.22;72.60;100771.91;1676285;83;21177;-43
2021/01/05 15:49:33;;;;;;;23.85;17.75;;;;;;;2.21;72.76;100767.53;1668909;84;21200;-42
2021/01/05 15:52:01;;;;;;;21.87;16.65;;;;;;;2.22;72.77;100763.13;1670471;84;21188;-41
2021/01/05 15:54:28;;;;;;;23.85;17.75;;;;;;;2.24;72.82;100765.28;1674930;83;21684;-40
2021/01/05 15:56:56;;;;;;;25.23;19.12;;;;;;;2.24;72.87;100763.52;1673515;83;21706;-42
2021/01/05 15:59:24;;;;;;;26.60;17.45;;;;;;;2.25;72.84;100760.46;1673459;83;21129;-41
2021/01/05 16:01:54;;;;;;;24.32;16.95;;;;;;;2.26;72.87;100759.55;1673893;83;21189;-42
2021/01/05 16:04:22;;;;;;;27.05;18.82;;;;;;;2.27;72.93;100754.69;1650518;85;21513;-45
2021/01/05 16:06:49;;;;;;;23.22;17.02;;;;;;;2.28;72.92;100749.41;1661875;83;21181;-43
2021/01/05 16:09:17;;;;;;;22.05;16.45;;;;;;;2.27;73.02;100756.91;1638531;86;21188;-44
2021/01/05 16:11:54;;;;;;;25.57;17.17;;;;;;;2.27;72.91;100749.00;1666800;84;21218;-43
2021/01/05 16:14:22;;;;;;;23.70;17.67;;;;;;;2.28;72.93;100753.36;1656152;84;21692;-42
2021/01/05 16:16:53;;;;;;;21.35;17.27;;;;;;;2.26;72.99;100751.20;1661927;84;21181;-45
2021/01/05 16:19:19;;;;;;;20.82;16.05;;;;;;;2.26;73.04;100751.20;1659286;84;21143;-47
2021/01/05 16:21:55;;;;;;;22.20;16.45;;;;;;;2.27;73.12;100750.74;1659611;84;21215;-46
2021/01/05 16:24:24;;;;;;;23.38;16.62;;;;;;;2.29;73.17;100747.22;1663174;84;21157;-44
2021/01/05 16:26:52;;;;;;;23.45;17.12;;;;;;;2.30;73.18;100754.66;1660845;84;21441;-42
2021/01/05 16:29:20;;;;;;;21.40;15.80;;;;;;;2.29;73.19;100755.11;1697060;82;21161;-44